sensor_id;sensor_type;location;lat;lon;timestamp;temperature;humidity
46037;DHT22;31769;49.304;8.428;2022-12-01T00:01:19;7.40;99.90
46037;DHT22;31769;49.304;8.428;2022-12-01T00:04:19;7.40;99.90
46037;DHT22;31769;49.304;8.428;2022-12-01T00:07:22;7.40;99.90
46037;DHT22;31769;49.304;8.428;2022-12-01T00:10:22;7.40;99.90
46037;DHT22;31769;49.304;8.428;2022-12-01T00:13:33;7.40;99.90
46037;DHT22;31769;49.304;8.428;2022-12-01T00:16:34;7.40;99.90
46037;DHT22;31769;49.304;8.428;2022-12-01T00:19:35;7.40;99.90
46037;DHT22;31769;49.304;8.428;2022-12-01T00:22:36;7.40;99.90
46037;DHT22;31769;49.304;8.428;2022-12-01T00:25:37;7.30;99.90
46037;DHT22;31769;49.304;8.428;2022-12-01T00:28:38;7.30;99.90
46037;DHT22;31769;49.304;8.428;2022-12-01T00:31:39;7.40;99.90
46037;DHT22;31769;49.304;8.428;2022-12-01T00:34:43;7.40;99.90
46037;DHT22;31769;49.304;8.428;2022-12-01T00:37:43;7.40;99.90
46037;DHT22;31769;49.304;8.428;2022-12-01T00:40:44;7.30;99.90
46037;DHT22;31769;49.304;8.428;2022-12-01T00:43:45;7.40;99.90
46037;DHT22;31769;49.304;8.428;2022-12-01T00:46:45;7.30;99.90
46037;DHT22;31769;49.304;8.428;2022-12-01T00:49:46;7.30;99.90
46037;DHT22;31769;49.304;8.428;2022-12-01T00:52:47;7.20;99.90
46037;DHT22;31769;49.304;8.428;2022-12-01T00:55:48;7.20;99.90
46037;DHT22;31769;49.304;8.428;2022-12-01T00:58:48;7.20;99.90
46037;DHT22;31769;49.304;8.428;2022-12-01T01:01:49;7.20;99.90
46037;DHT22;31769;49.304;8.428;2022-12-01T01:04:51;7.20;99.90
46037;DHT22;31769;49.304;8.428;2022-12-01T01:07:52;7.20;99.90
46037;DHT22;31769;49.304;8.428;2022-12-01T01:10:53;7.20;99.90
46037;DHT22;31769;49.304;8.428;2022-12-01T01:13:53;7.20;99.90
46037;DHT22;31769;49.304;8.428;2022-12-01T01:16:54;7.20;99.90
46037;DHT22;31769;49.304;8.428;2022-12-01T01:19:55;7.20;99.90
46037;DHT22;31769;49.304;8.428;2022-12-01T01:22:57;7.20;99.90
46037;DHT22;31769;49.304;8.428;2022-12-01T01:26:28;7.20;99.90
46037;DHT22;31769;49.304;8.428;2022-12-01T01:29:27;7.20;99.90
46037;DHT22;31769;49.304;8.428;2022-12-01T01:32:28;7.20;99.90
46037;DHT22;31769;49.304;8.428;2022-12-01T01:35:29;7.20;99.90
46037;DHT22;31769;49.304;8.428;2022-12-01T01:38:30;7.20;99.90
46037;DHT22;31769;49.304;8.428;2022-12-01T01:41:31;7.20;99.90
46037;DHT22;31769;49.304;8.428;2022-12-01T01:44:48;7.20;99.90
46037;DHT22;31769;49.304;8.428;2022-12-01T01:47:51;7.10;99.90
46037;DHT22;31769;49.304;8.428;2022-12-01T01:50:52;7.10;99.90
46037;DHT22;31769;49.304;8.428;2022-12-01T01:53:57;7.10;99.90
46037;DHT22;31769;49.304;8.428;2022-12-01T01:56:59;7.10;99.90
46037;DHT22;31769;49.304;8.428;2022-12-01T02:00:23;7.00;99.90
46037;DHT22;31769;49.304;8.428;2022-12-01T02:03:25;7.00;99.90
46037;DHT22;31769;49.304;8.428;2022-12-01T02:06:27;7.00;99.90
46037;DHT22;31769;49.304;8.428;2022-12-01T02:09:36;7.00;99.90
46037;DHT22;31769;49.304;8.428;2022-12-01T02:12:57;7.00;99.90
46037;DHT22;31769;49.304;8.428;2022-12-01T02:34:06;7.00;99.90
46037;DHT22;31769;49.304;8.428;2022-12-01T02:37:20;7.00;99.90
46037;DHT22;31769;49.304;8.428;2022-12-01T02:40:50;7.00;99.90
46037;DHT22;31769;49.304;8.428;2022-12-01T02:47:04;7.10;99.90
46037;DHT22;31769;49.304;8.428;2022-12-01T02:50:10;7.10;99.90
46037;DHT22;31769;49.304;8.428;2022-12-01T02:53:14;7.10;99.90
46037;DHT22;31769;49.304;8.428;2022-12-01T02:56:20;7.00;99.90
46037;DHT22;31769;49.304;8.428;2022-12-01T02:59:21;7.00;99.90
46037;DHT22;31769;49.304;8.428;2022-12-01T03:02:27;7.00;99.90
46037;DHT22;31769;49.304;8.428;2022-12-01T03:05:52;7.00;99.90
46037;DHT22;31769;49.304;8.428;2022-12-01T03:08:58;6.90;99.90
46037;DHT22;31769;49.304;8.428;2022-12-01T03:21:43;6.90;99.90
46037;DHT22;31769;49.304;8.428;2022-12-01T03:24:47;6.90;99.90
46037;DHT22;31769;49.304;8.428;2022-12-01T03:27:49;6.90;99.90
46037;DHT22;31769;49.304;8.428;2022-12-01T03:30:58;6.90;99.90
46037;DHT22;31769;49.304;8.428;2022-12-01T03:34:11;6.90;99.90
46037;DHT22;31769;49.304;8.428;2022-12-01T03:40:54;6.90;99.90
46037;DHT22;31769;49.304;8.428;2022-12-01T03:44:05;6.80;99.90
46037;DHT22;31769;49.304;8.428;2022-12-01T03:47:11;6.80;99.90
46037;DHT22;31769;49.304;8.428;2022-12-01T03:50:14;6.80;99.90
46037;DHT22;31769;49.304;8.428;2022-12-01T03:53:22;6.70;99.90
46037;DHT22;31769;49.304;8.428;2022-12-01T03:56:31;6.70;99.90
46037;DHT22;31769;49.304;8.428;2022-12-01T03:59:42;6.70;99.90
46037;DHT22;31769;49.304;8.428;2022-12-01T04:02:43;6.70;99.90
46037;DHT22;31769;49.304;8.428;2022-12-01T04:05:45;6.70;99.90
46037;DHT22;31769;49.304;8.428;2022-12-01T04:08:46;6.60;99.90
46037;DHT22;31769;49.304;8.428;2022-12-01T04:11:46;6.70;99.90
46037;DHT22;31769;49.304;8.428;2022-12-01T04:15:08;6.60;99.90
46037;DHT22;31769;49.304;8.428;2022-12-01T04:18:09;6.60;99.90
46037;DHT22;31769;49.304;8.428;2022-12-01T04:21:10;6.60;99.90
46037;DHT22;31769;49.304;8.428;2022-12-01T04:24:11;6.60;99.90
46037;DHT22;31769;49.304;8.428;2022-12-01T04:27:12;6.60;99.90
46037;DHT22;31769;49.304;8.428;2022-12-01T04:30:13;6.70;99.90
46037;DHT22;31769;49.304;8.428;2022-12-01T04:33:14;6.70;99.90
46037;DHT22;31769;49.304;8.428;2022-12-01T04:36:14;6.60;99.90
46037;DHT22;31769;49.304;8.428;2022-12-01T04:39:15;6.60;99.90
46037;DHT22;31769;49.304;8.428;2022-12-01T04:42:16;6.60;99.90
46037;DHT22;31769;49.304;8.428;2022-12-01T04:45:16;6.60;99.90
46037;DHT22;31769;49.304;8.428;2022-12-01T04:48:17;6.60;99.90
46037;DHT22;31769;49.304;8.428;2022-12-01T04:51:18;6.60;99.90
46037;DHT22;31769;49.304;8.428;2022-12-01T04:54:19;6.50;99.90
46037;DHT22;31769;49.304;8.428;2022-12-01T04:57:19;6.70;99.90
46037;DHT22;31769;49.304;8.428;2022-12-01T05:00:20;6.50;99.90
46037;DHT22;31769;49.304;8.428;2022-12-01T05:03:21;6.60;99.90
46037;DHT22;31769;49.304;8.428;2022-12-01T05:06:24;6.60;99.90
46037;DHT22;31769;49.304;8.428;2022-12-01T05:09:25;6.50;99.90
46037;DHT22;31769;49.304;8.428;2022-12-01T05:12:26;6.50;99.90
46037;DHT22;31769;49.304;8.428;2022-12-01T05:15:27;6.50;99.90
46037;DHT22;31769;49.304;8.428;2022-12-01T05:18:27;6.50;99.90
46037;DHT22;31769;49.304;8.428;2022-12-01T05:21:28;6.40;99.90
46037;DHT22;31769;49.304;8.428;2022-12-01T05:24:29;6.40;99.90
46037;DHT22;31769;49.304;8.428;2022-12-01T05:27:29;6.40;99.90
46037;DHT22;31769;49.304;8.428;2022-12-01T05:30:30;6.40;99.90
46037;DHT22;31769;49.304;8.428;2022-12-01T05:33:31;6.50;99.90
46037;DHT22;31769;49.304;8.428;2022-12-01T05:36:32;6.50;99.90
46037;DHT22;31769;49.304;8.428;2022-12-01T05:39:32;6.50;99.90
46037;DHT22;31769;49.304;8.428;2022-12-01T05:42:33;6.50;99.90
46037;DHT22;31769;49.304;8.428;2022-12-01T05:45:34;6.50;99.90
46037;DHT22;31769;49.304;8.428;2022-12-01T05:48:35;6.60;99.90
46037;DHT22;31769;49.304;8.428;2022-12-01T05:51:36;6.50;99.90
46037;DHT22;31769;49.304;8.428;2022-12-01T05:54:36;6.50;99.90
46037;DHT22;31769;49.304;8.428;2022-12-01T05:57:37;6.60;99.90
46037;DHT22;31769;49.304;8.428;2022-12-01T06:00:38;6.50;99.90
46037;DHT22;31769;49.304;8.428;2022-12-01T06:03:39;6.50;99.90
46037;DHT22;31769;49.304;8.428;2022-12-01T06:06:39;6.50;99.90
46037;DHT22;31769;49.304;8.428;2022-12-01T06:09:40;6.50;99.90
46037;DHT22;31769;49.304;8.428;2022-12-01T06:12:41;6.50;99.90
46037;DHT22;31769;49.304;8.428;2022-12-01T06:15:42;6.50;99.90
46037;DHT22;31769;49.304;8.428;2022-12-01T06:18:42;6.50;99.90
46037;DHT22;31769;49.304;8.428;2022-12-01T06:21:43;6.50;99.90
46037;DHT22;31769;49.304;8.428;2022-12-01T06:24:44;6.40;99.90
46037;DHT22;31769;49.304;8.428;2022-12-01T06:27:44;6.40;99.90
46037;DHT22;31769;49.304;8.428;2022-12-01T06:30:45;6.40;99.90
46037;DHT22;31769;49.304;8.428;2022-12-01T06:33:46;6.40;99.90
46037;DHT22;31769;49.304;8.428;2022-12-01T06:36:47;6.40;99.90
46037;DHT22;31769;49.304;8.428;2022-12-01T06:39:47;6.40;99.90
46037;DHT22;31769;49.304;8.428;2022-12-01T06:42:48;6.40;99.90
46037;DHT22;31769;49.304;8.428;2022-12-01T06:45:49;6.40;99.90
46037;DHT22;31769;49.304;8.428;2022-12-01T06:48:50;6.50;99.90
46037;DHT22;31769;49.304;8.428;2022-12-01T06:51:50;6.50;99.90
46037;DHT22;31769;49.304;8.428;2022-12-01T06:54:51;6.50;99.90
46037;DHT22;31769;49.304;8.428;2022-12-01T06:57:52;6.60;99.90
46037;DHT22;31769;49.304;8.428;2022-12-01T07:00:53;6.50;99.90
46037;DHT22;31769;49.304;8.428;2022-12-01T07:03:53;6.60;99.90
46037;DHT22;31769;49.304;8.428;2022-12-01T07:06:54;6.60;99.90
46037;DHT22;31769;49.304;8.428;2022-12-01T07:09:55;6.50;99.90
46037;DHT22;31769;49.304;8.428;2022-12-01T07:12:55;6.50;99.90
46037;DHT22;31769;49.304;8.428;2022-12-01T07:15:56;6.60;99.90
46037;DHT22;31769;49.304;8.428;2022-12-01T07:18:57;6.50;99.90
46037;DHT22;31769;49.304;8.428;2022-12-01T07:21:59;6.50;99.90
46037;DHT22;31769;49.304;8.428;2022-12-01T07:25:00;6.50;99.90
46037;DHT22;31769;49.304;8.428;2022-12-01T07:28:00;6.50;99.90
46037;DHT22;31769;49.304;8.428;2022-12-01T07:34:06;6.50;99.90
46037;DHT22;31769;49.304;8.428;2022-12-01T07:37:07;6.60;99.90
46037;DHT22;31769;49.304;8.428;2022-12-01T07:40:08;6.60;99.90
46037;DHT22;31769;49.304;8.428;2022-12-01T07:43:09;6.60;99.90
46037;DHT22;31769;49.304;8.428;2022-12-01T07:46:14;6.60;99.90
46037;DHT22;31769;49.304;8.428;2022-12-01T07:49:15;6.60;99.90
46037;DHT22;31769;49.304;8.428;2022-12-01T07:52:16;6.60;99.90
46037;DHT22;31769;49.304;8.428;2022-12-01T07:55:17;6.60;99.90
46037;DHT22;31769;49.304;8.428;2022-12-01T07:58:18;6.60;99.90
46037;DHT22;31769;49.304;8.428;2022-12-01T08:01:21;6.60;99.90
46037;DHT22;31769;49.304;8.428;2022-12-01T08:04:22;6.60;99.90
46037;DHT22;31769;49.304;8.428;2022-12-01T08:07:23;6.50;99.90
46037;DHT22;31769;49.304;8.428;2022-12-01T08:10:23;6.50;99.90
46037;DHT22;31769;49.304;8.428;2022-12-01T08:13:24;6.50;99.90
46037;DHT22;31769;49.304;8.428;2022-12-01T08:16:25;6.60;99.90
46037;DHT22;31769;49.304;8.428;2022-12-01T08:19:26;6.50;99.90
46037;DHT22;31769;49.304;8.428;2022-12-01T08:22:28;6.50;99.90
46037;DHT22;31769;49.304;8.428;2022-12-01T08:25:29;6.50;99.90
46037;DHT22;31769;49.304;8.428;2022-12-01T08:28:30;6.50;99.90
46037;DHT22;31769;49.304;8.428;2022-12-01T08:31:32;6.50;99.90
46037;DHT22;31769;49.304;8.428;2022-12-01T08:34:35;6.50;99.90
46037;DHT22;31769;49.304;8.428;2022-12-01T08:37:38;6.50;99.90
46037;DHT22;31769;49.304;8.428;2022-12-01T08:40:38;6.50;99.90
46037;DHT22;31769;49.304;8.428;2022-12-01T08:43:40;6.50;99.90
46037;DHT22;31769;49.304;8.428;2022-12-01T08:46:43;6.50;99.90
46037;DHT22;31769;49.304;8.428;2022-12-01T08:49:44;6.50;99.90
46037;DHT22;31769;49.304;8.428;2022-12-01T08:52:45;6.50;99.90
46037;DHT22;31769;49.304;8.428;2022-12-01T08:55:46;6.60;99.90
46037;DHT22;31769;49.304;8.428;2022-12-01T08:58:46;6.60;99.90
46037;DHT22;31769;49.304;8.428;2022-12-01T09:01:47;6.60;99.90
46037;DHT22;31769;49.304;8.428;2022-12-01T09:04:54;6.70;99.90
46037;DHT22;31769;49.304;8.428;2022-12-01T09:07:55;6.70;99.90
46037;DHT22;31769;49.304;8.428;2022-12-01T09:11:17;6.70;99.90
46037;DHT22;31769;49.304;8.428;2022-12-01T09:14:19;6.70;99.90
46037;DHT22;31769;49.304;8.428;2022-12-01T09:17:20;6.70;99.90
46037;DHT22;31769;49.304;8.428;2022-12-01T09:20:20;6.80;99.90
46037;DHT22;31769;49.304;8.428;2022-12-01T09:23:22;6.80;99.90
46037;DHT22;31769;49.304;8.428;2022-12-01T09:26:23;6.80;99.90
46037;DHT22;31769;49.304;8.428;2022-12-01T09:29:24;6.80;99.90
46037;DHT22;31769;49.304;8.428;2022-12-01T09:32:25;6.80;99.90
46037;DHT22;31769;49.304;8.428;2022-12-01T09:35:26;6.90;99.90
46037;DHT22;31769;49.304;8.428;2022-12-01T09:38:28;6.90;99.90
46037;DHT22;31769;49.304;8.428;2022-12-01T09:41:36;7.00;99.90
46037;DHT22;31769;49.304;8.428;2022-12-01T09:44:40;6.90;99.90
46037;DHT22;31769;49.304;8.428;2022-12-01T09:47:42;6.90;99.90
46037;DHT22;31769;49.304;8.428;2022-12-01T09:50:46;7.00;99.90
46037;DHT22;31769;49.304;8.428;2022-12-01T09:53:52;7.00;99.90
46037;DHT22;31769;49.304;8.428;2022-12-01T09:56:54;7.00;99.90
46037;DHT22;31769;49.304;8.428;2022-12-01T09:59:57;7.00;99.90
46037;DHT22;31769;49.304;8.428;2022-12-01T10:06:26;6.90;99.90
46037;DHT22;31769;49.304;8.428;2022-12-01T10:09:39;6.80;99.90
46037;DHT22;31769;49.304;8.428;2022-12-01T10:12:44;6.70;99.90
46037;DHT22;31769;49.304;8.428;2022-12-01T10:19:15;6.70;99.90
46037;DHT22;31769;49.304;8.428;2022-12-01T10:23:05;6.70;99.90
46037;DHT22;31769;49.304;8.428;2022-12-01T10:25:56;6.80;99.90
46037;DHT22;31769;49.304;8.428;2022-12-01T10:29:07;6.80;99.90
46037;DHT22;31769;49.304;8.428;2022-12-01T10:32:52;6.70;99.90
46037;DHT22;31769;49.304;8.428;2022-12-01T10:35:53;6.60;99.90
46037;DHT22;31769;49.304;8.428;2022-12-01T10:38:54;6.50;99.90
46037;DHT22;31769;49.304;8.428;2022-12-01T10:42:04;6.50;99.90
46037;DHT22;31769;49.304;8.428;2022-12-01T10:45:17;6.50;99.90
46037;DHT22;31769;49.304;8.428;2022-12-01T10:48:21;6.50;99.90
46037;DHT22;31769;49.304;8.428;2022-12-01T10:51:23;6.60;99.90
46037;DHT22;31769;49.304;8.428;2022-12-01T10:54:39;6.70;99.90
46037;DHT22;31769;49.304;8.428;2022-12-01T10:57:44;6.70;99.90
46037;DHT22;31769;49.304;8.428;2022-12-01T11:00:55;6.80;99.90
46037;DHT22;31769;49.304;8.428;2022-12-01T11:04:07;6.80;99.90
46037;DHT22;31769;49.304;8.428;2022-12-01T11:07:29;6.90;99.90
46037;DHT22;31769;49.304;8.428;2022-12-01T11:10:32;6.90;99.90
46037;DHT22;31769;49.304;8.428;2022-12-01T11:13:35;7.00;99.90
46037;DHT22;31769;49.304;8.428;2022-12-01T11:16:44;7.00;99.90
46037;DHT22;31769;49.304;8.428;2022-12-01T11:19:45;7.00;99.90
46037;DHT22;31769;49.304;8.428;2022-12-01T11:22:46;7.00;99.90
46037;DHT22;31769;49.304;8.428;2022-12-01T11:26:26;7.00;99.90
46037;DHT22;31769;49.304;8.428;2022-12-01T11:29:31;6.90;99.90
46037;DHT22;31769;49.304;8.428;2022-12-01T11:32:37;6.90;99.90
46037;DHT22;31769;49.304;8.428;2022-12-01T11:35:46;6.90;99.90
46037;DHT22;31769;49.304;8.428;2022-12-01T11:38:47;6.90;99.90
46037;DHT22;31769;49.304;8.428;2022-12-01T11:41:48;7.10;99.90
46037;DHT22;31769;49.304;8.428;2022-12-01T11:45:01;7.10;99.90
46037;DHT22;31769;49.304;8.428;2022-12-01T11:54:23;7.10;99.90
46037;DHT22;31769;49.304;8.428;2022-12-01T11:57:25;7.10;99.90
46037;DHT22;31769;49.304;8.428;2022-12-01T12:00:39;7.10;99.90
46037;DHT22;31769;49.304;8.428;2022-12-01T12:10:52;7.00;99.90
46037;DHT22;31769;49.304;8.428;2022-12-01T12:20:52;6.90;99.90
46037;DHT22;31769;49.304;8.428;2022-12-01T12:27:21;6.90;99.90
46037;DHT22;31769;49.304;8.428;2022-12-01T12:30:27;6.90;99.90
46037;DHT22;31769;49.304;8.428;2022-12-01T12:33:46;6.80;99.90
46037;DHT22;31769;49.304;8.428;2022-12-01T12:46:50;6.90;99.90
46037;DHT22;31769;49.304;8.428;2022-12-01T12:53:20;7.00;99.90
46037;DHT22;31769;49.304;8.428;2022-12-01T12:56:23;7.00;99.90
46037;DHT22;31769;49.304;8.428;2022-12-01T12:59:33;6.90;99.90
46037;DHT22;31769;49.304;8.428;2022-12-01T13:03:10;6.90;99.90
46037;DHT22;31769;49.304;8.428;2022-12-01T13:06:28;6.90;99.90
46037;DHT22;31769;49.304;8.428;2022-12-01T13:09:49;7.00;99.90
46037;DHT22;31769;49.304;8.428;2022-12-01T13:12:57;6.90;99.90
46037;DHT22;31769;49.304;8.428;2022-12-01T13:16:00;6.90;99.90
46037;DHT22;31769;49.304;8.428;2022-12-01T13:19:10;7.00;99.90
46037;DHT22;31769;49.304;8.428;2022-12-01T13:22:13;7.00;99.90
46037;DHT22;31769;49.304;8.428;2022-12-01T13:25:21;7.00;99.90
46037;DHT22;31769;49.304;8.428;2022-12-01T13:28:26;7.10;99.90
46037;DHT22;31769;49.304;8.428;2022-12-01T13:31:27;7.00;99.90
46037;DHT22;31769;49.304;8.428;2022-12-01T13:37:36;7.00;99.90
46037;DHT22;31769;49.304;8.428;2022-12-01T13:40:38;7.00;99.90
46037;DHT22;31769;49.304;8.428;2022-12-01T13:47:08;6.90;99.90
46037;DHT22;31769;49.304;8.428;2022-12-01T13:57:11;6.90;99.90
46037;DHT22;31769;49.304;8.428;2022-12-01T14:03:36;6.90;99.90
46037;DHT22;31769;49.304;8.428;2022-12-01T14:06:41;6.90;99.90
46037;DHT22;31769;49.304;8.428;2022-12-01T14:09:50;6.80;99.90
46037;DHT22;31769;49.304;8.428;2022-12-01T14:13:00;6.90;99.90
46037;DHT22;31769;49.304;8.428;2022-12-01T14:16:02;6.90;99.90
46037;DHT22;31769;49.304;8.428;2022-12-01T14:19:04;6.90;99.90
46037;DHT22;31769;49.304;8.428;2022-12-01T14:22:06;6.80;99.90
46037;DHT22;31769;49.304;8.428;2022-12-01T14:25:28;6.80;99.90
46037;DHT22;31769;49.304;8.428;2022-12-01T14:29:22;6.80;99.90
46037;DHT22;31769;49.304;8.428;2022-12-01T14:32:23;6.80;99.90
46037;DHT22;31769;49.304;8.428;2022-12-01T14:35:24;6.80;99.90
46037;DHT22;31769;49.304;8.428;2022-12-01T14:38:27;6.80;99.90
46037;DHT22;31769;49.304;8.428;2022-12-01T14:41:47;6.70;99.90
46037;DHT22;31769;49.304;8.428;2022-12-01T14:44:53;6.70;99.90
46037;DHT22;31769;49.304;8.428;2022-12-01T14:48:03;6.70;99.90
46037;DHT22;31769;49.304;8.428;2022-12-01T14:51:29;6.70;99.90
46037;DHT22;31769;49.304;8.428;2022-12-01T14:54:44;6.70;99.90
46037;DHT22;31769;49.304;8.428;2022-12-01T14:57:49;6.70;99.90
46037;DHT22;31769;49.304;8.428;2022-12-01T15:01:09;6.70;99.90
46037;DHT22;31769;49.304;8.428;2022-12-01T15:04:10;6.70;99.90
46037;DHT22;31769;49.304;8.428;2022-12-01T15:07:11;6.60;99.90
46037;DHT22;31769;49.304;8.428;2022-12-01T15:10:23;6.60;99.90
46037;DHT22;31769;49.304;8.428;2022-12-01T15:13:31;6.60;99.90
46037;DHT22;31769;49.304;8.428;2022-12-01T15:16:39;6.50;99.90
46037;DHT22;31769;49.304;8.428;2022-12-01T15:19:42;6.50;99.90
46037;DHT22;31769;49.304;8.428;2022-12-01T15:22:43;6.50;99.90
46037;DHT22;31769;49.304;8.428;2022-12-01T15:25:45;6.40;99.90
46037;DHT22;31769;49.304;8.428;2022-12-01T15:28:46;6.40;99.90
46037;DHT22;31769;49.304;8.428;2022-12-01T15:31:52;6.40;99.90
46037;DHT22;31769;49.304;8.428;2022-12-01T15:34:54;6.40;99.90
46037;DHT22;31769;49.304;8.428;2022-12-01T15:37:56;6.40;99.90
46037;DHT22;31769;49.304;8.428;2022-12-01T15:40:58;6.30;99.90
46037;DHT22;31769;49.304;8.428;2022-12-01T15:43:59;6.30;99.90
46037;DHT22;31769;49.304;8.428;2022-12-01T15:47:35;6.20;99.90
46037;DHT22;31769;49.304;8.428;2022-12-01T15:50:48;6.20;99.90
46037;DHT22;31769;49.304;8.428;2022-12-01T15:53:58;6.20;99.90
46037;DHT22;31769;49.304;8.428;2022-12-01T15:57:01;6.20;99.90
46037;DHT22;31769;49.304;8.428;2022-12-01T16:00:03;6.20;99.90
46037;DHT22;31769;49.304;8.428;2022-12-01T16:03:13;6.20;99.90
46037;DHT22;31769;49.304;8.428;2022-12-01T16:06:14;6.20;99.90
46037;DHT22;31769;49.304;8.428;2022-12-01T16:09:28;6.20;99.90
46037;DHT22;31769;49.304;8.428;2022-12-01T16:12:32;6.20;99.90
46037;DHT22;31769;49.304;8.428;2022-12-01T16:15:42;6.20;99.90
46037;DHT22;31769;49.304;8.428;2022-12-01T16:19:32;6.20;99.90
46037;DHT22;31769;49.304;8.428;2022-12-01T16:22:19;6.20;99.90
46037;DHT22;31769;49.304;8.428;2022-12-01T16:25:40;6.20;99.90
46037;DHT22;31769;49.304;8.428;2022-12-01T16:28:42;6.10;99.90
46037;DHT22;31769;49.304;8.428;2022-12-01T16:31:43;6.10;99.90
46037;DHT22;31769;49.304;8.428;2022-12-01T16:34:44;6.20;99.90
46037;DHT22;31769;49.304;8.428;2022-12-01T16:37:46;6.20;99.90
46037;DHT22;31769;49.304;8.428;2022-12-01T16:40:55;6.20;99.90
46037;DHT22;31769;49.304;8.428;2022-12-01T16:43:56;6.20;99.90
46037;DHT22;31769;49.304;8.428;2022-12-01T16:46:57;6.20;99.90
46037;DHT22;31769;49.304;8.428;2022-12-01T16:49:57;6.20;99.90
46037;DHT22;31769;49.304;8.428;2022-12-01T16:52:58;6.20;99.90
46037;DHT22;31769;49.304;8.428;2022-12-01T16:56:00;6.20;99.90
46037;DHT22;31769;49.304;8.428;2022-12-01T16:59:01;6.20;99.90
46037;DHT22;31769;49.304;8.428;2022-12-01T17:02:02;6.20;99.90
46037;DHT22;31769;49.304;8.428;2022-12-01T17:05:03;6.20;99.90
46037;DHT22;31769;49.304;8.428;2022-12-01T17:08:04;6.20;99.90
46037;DHT22;31769;49.304;8.428;2022-12-01T17:11:05;6.20;99.90
46037;DHT22;31769;49.304;8.428;2022-12-01T17:14:06;6.20;99.90
46037;DHT22;31769;49.304;8.428;2022-12-01T17:17:07;6.20;99.90
46037;DHT22;31769;49.304;8.428;2022-12-01T17:20:08;6.20;99.90
46037;DHT22;31769;49.304;8.428;2022-12-01T17:23:10;6.20;99.90
46037;DHT22;31769;49.304;8.428;2022-12-01T17:26:14;6.20;99.90
46037;DHT22;31769;49.304;8.428;2022-12-01T17:29:15;6.20;99.90
46037;DHT22;31769;49.304;8.428;2022-12-01T17:32:15;6.20;99.90
46037;DHT22;31769;49.304;8.428;2022-12-01T17:35:16;6.20;99.90
46037;DHT22;31769;49.304;8.428;2022-12-01T17:38:17;6.20;99.90
46037;DHT22;31769;49.304;8.428;2022-12-01T17:41:19;6.10;99.90
46037;DHT22;31769;49.304;8.428;2022-12-01T17:44:21;6.10;99.90
46037;DHT22;31769;49.304;8.428;2022-12-01T17:47:22;6.10;99.90
46037;DHT22;31769;49.304;8.428;2022-12-01T17:50:22;6.10;99.90
46037;DHT22;31769;49.304;8.428;2022-12-01T17:53:23;6.10;99.90
46037;DHT22;31769;49.304;8.428;2022-12-01T17:56:23;6.20;99.90
46037;DHT22;31769;49.304;8.428;2022-12-01T17:59:24;6.10;99.90
46037;DHT22;31769;49.304;8.428;2022-12-01T18:02:25;6.10;99.90
46037;DHT22;31769;49.304;8.428;2022-12-01T18:05:26;6.20;99.90
46037;DHT22;31769;49.304;8.428;2022-12-01T18:08:29;6.10;99.90
46037;DHT22;31769;49.304;8.428;2022-12-01T18:11:30;6.10;99.90
46037;DHT22;31769;49.304;8.428;2022-12-01T18:14:31;6.10;99.90
46037;DHT22;31769;49.304;8.428;2022-12-01T18:17:33;6.10;99.90
46037;DHT22;31769;49.304;8.428;2022-12-01T18:20:41;6.10;99.90
46037;DHT22;31769;49.304;8.428;2022-12-01T18:23:51;6.10;99.90
46037;DHT22;31769;49.304;8.428;2022-12-01T18:26:53;6.10;99.90
46037;DHT22;31769;49.304;8.428;2022-12-01T18:29:54;6.10;99.90
46037;DHT22;31769;49.304;8.428;2022-12-01T18:32:55;6.10;99.90
46037;DHT22;31769;49.304;8.428;2022-12-01T18:35:57;6.10;99.90
46037;DHT22;31769;49.304;8.428;2022-12-01T18:38:59;6.10;99.90
46037;DHT22;31769;49.304;8.428;2022-12-01T18:42:00;6.10;99.90
46037;DHT22;31769;49.304;8.428;2022-12-01T18:45:01;6.10;99.90
46037;DHT22;31769;49.304;8.428;2022-12-01T18:48:03;6.10;99.90
46037;DHT22;31769;49.304;8.428;2022-12-01T18:51:05;6.10;99.90
46037;DHT22;31769;49.304;8.428;2022-12-01T18:54:09;6.10;99.90
46037;DHT22;31769;49.304;8.428;2022-12-01T18:57:11;6.10;99.90
46037;DHT22;31769;49.304;8.428;2022-12-01T19:00:14;6.10;99.90
46037;DHT22;31769;49.304;8.428;2022-12-01T19:03:14;6.10;99.90
46037;DHT22;31769;49.304;8.428;2022-12-01T19:06:15;6.10;99.90
46037;DHT22;31769;49.304;8.428;2022-12-01T19:09:18;6.10;99.90
46037;DHT22;31769;49.304;8.428;2022-12-01T19:12:19;6.10;99.90
46037;DHT22;31769;49.304;8.428;2022-12-01T19:15:20;6.10;99.90
46037;DHT22;31769;49.304;8.428;2022-12-01T19:18:21;6.10;99.90
46037;DHT22;31769;49.304;8.428;2022-12-01T19:21:22;6.10;99.90
46037;DHT22;31769;49.304;8.428;2022-12-01T19:24:23;6.00;99.90
46037;DHT22;31769;49.304;8.428;2022-12-01T19:27:24;6.00;99.90
46037;DHT22;31769;49.304;8.428;2022-12-01T19:30:26;6.10;99.90
46037;DHT22;31769;49.304;8.428;2022-12-01T19:33:27;6.10;99.90
46037;DHT22;31769;49.304;8.428;2022-12-01T19:36:28;6.10;99.90
46037;DHT22;31769;49.304;8.428;2022-12-01T19:39:29;6.10;99.90
46037;DHT22;31769;49.304;8.428;2022-12-01T19:42:30;6.10;99.90
46037;DHT22;31769;49.304;8.428;2022-12-01T19:45:31;6.00;99.90
46037;DHT22;31769;49.304;8.428;2022-12-01T19:48:33;6.00;99.90
46037;DHT22;31769;49.304;8.428;2022-12-01T19:51:37;5.90;99.90
46037;DHT22;31769;49.304;8.428;2022-12-01T19:54:38;6.00;99.90
46037;DHT22;31769;49.304;8.428;2022-12-01T19:57:38;6.00;99.90
46037;DHT22;31769;49.304;8.428;2022-12-01T20:00:39;6.00;99.90
46037;DHT22;31769;49.304;8.428;2022-12-01T20:03:40;5.90;99.90
46037;DHT22;31769;49.304;8.428;2022-12-01T20:06:41;5.90;99.90
46037;DHT22;31769;49.304;8.428;2022-12-01T20:09:41;6.00;99.90
46037;DHT22;31769;49.304;8.428;2022-12-01T20:12:43;5.90;99.90
46037;DHT22;31769;49.304;8.428;2022-12-01T20:15:43;5.90;99.90
46037;DHT22;31769;49.304;8.428;2022-12-01T20:18:45;5.90;99.90
46037;DHT22;31769;49.304;8.428;2022-12-01T20:21:46;5.90;99.90
46037;DHT22;31769;49.304;8.428;2022-12-01T20:24:46;5.90;99.90
46037;DHT22;31769;49.304;8.428;2022-12-01T20:27:47;5.90;99.90
46037;DHT22;31769;49.304;8.428;2022-12-01T20:30:47;5.90;99.90
46037;DHT22;31769;49.304;8.428;2022-12-01T20:33:49;5.90;99.90
46037;DHT22;31769;49.304;8.428;2022-12-01T20:36:51;5.90;99.90
46037;DHT22;31769;49.304;8.428;2022-12-01T20:39:52;5.90;99.90
46037;DHT22;31769;49.304;8.428;2022-12-01T20:42:53;5.80;99.90
46037;DHT22;31769;49.304;8.428;2022-12-01T20:45:53;5.90;99.90
46037;DHT22;31769;49.304;8.428;2022-12-01T20:48:54;5.90;99.90
46037;DHT22;31769;49.304;8.428;2022-12-01T20:51:55;5.90;99.90
46037;DHT22;31769;49.304;8.428;2022-12-01T20:54:56;5.90;99.90
46037;DHT22;31769;49.304;8.428;2022-12-01T20:57:56;5.90;99.90
46037;DHT22;31769;49.304;8.428;2022-12-01T22:06:41;5.70;99.90
46037;DHT22;31769;49.304;8.428;2022-12-01T22:12:44;5.60;99.90
46037;DHT22;31769;49.304;8.428;2022-12-01T22:18:49;5.50;99.90
46037;DHT22;31769;49.304;8.428;2022-12-01T22:25:20;5.50;99.90
46037;DHT22;31769;49.304;8.428;2022-12-01T22:28:23;5.50;99.90
46037;DHT22;31769;49.304;8.428;2022-12-01T22:31:25;5.60;99.90
46037;DHT22;31769;49.304;8.428;2022-12-01T22:34:27;5.80;99.90